Time;durP1;ratioP1;P1;durP2;ratioP2;P2;SDS_P1;SDS_P2;PMS_P1;PMS_P2;Temp;Humidity;BMP_temperature;BMP_pressure;BME280_temperature;BME280_humidity;BME280_pressure;Samples;Min_cycle;Max_cycle;Signal;HPM_P1;HPM_P2
2022/06/21 00:00:25;;;;;;;0.90;0.90;;;;;;;13.96;93.22;98116.22;5053624;28;20216;-73
2022/06/21 00:02:54;;;;;;;1.30;1.20;;;;;;;13.93;93.71;98117.31;5053439;28;20208;-73
2022/06/21 00:05:25;;;;;;;1.30;1.20;;;;;;;13.94;93.87;98118.16;5053628;28;20212;-73
2022/06/21 00:07:51;;;;;;;1.20;1.10;;;;;;;13.88;94.13;98118.66;5053458;28;20216;-72
2022/06/21 00:10:20;;;;;;;1.20;1.10;;;;;;;13.80;94.84;98123.75;5053486;28;20223;-73
2022/06/21 00:12:47;;;;;;;1.17;1.13;;;;;;;13.89;93.70;98117.69;5053131;28;20240;-73
2022/06/21 00:15:14;;;;;;;2.87;1.60;;;;;;;13.93;93.04;98108.50;5051384;28;20706;-73
2022/06/21 00:17:44;;;;;;;1.40;1.23;;;;;;;13.88;93.86;98118.66;5053152;28;20207;-73
2022/06/21 00:20:13;;;;;;;1.30;1.20;;;;;;;13.96;92.98;98110.91;5053419;28;20211;-73
2022/06/21 00:22:40;;;;;;;1.70;1.60;;;;;;;13.96;92.74;98116.22;5053491;28;20274;-73
2022/06/21 00:25:15;;;;;;;2.50;1.30;;;;;;;14.03;91.92;98114.72;5053368;28;20226;-73
2022/06/21 00:27:43;;;;;;;1.27;1.17;;;;;;;13.96;92.28;98118.88;5053013;28;20219;-73
2022/06/21 00:30:11;;;;;;;2.43;1.40;;;;;;;13.95;91.96;98118.03;5053092;28;20218;-73
2022/06/21 00:32:37;;;;;;;1.83;1.33;;;;;;;13.87;93.02;98106.34;5052976;28;20241;-73
2022/06/21 00:35:09;;;;;;;1.63;1.17;;;;;;;13.78;93.30;98117.72;5053180;28;20218;-73
2022/06/21 00:37:36;;;;;;;1.60;1.50;;;;;;;13.57;95.20;98115.00;5053108;28;20254;-73
2022/06/21 00:40:07;;;;;;;1.37;1.20;;;;;;;13.54;95.66;98120.59;5052950;28;20212;-73
2022/06/21 00:42:38;;;;;;;1.73;1.50;;;;;;;13.49;96.33;98119.25;5051436;28;20219;-76
2022/06/21 00:45:11;;;;;;;1.37;1.27;;;;;;;13.54;95.34;98117.94;5046487;28;20697;-73
2022/06/21 00:47:45;;;;;;;1.87;1.20;;;;;;;13.61;94.01;98121.78;5053074;28;20212;-73
2022/06/21 00:50:19;;;;;;;1.47;1.37;;;;;;;13.63;93.48;98119.00;5053153;28;20212;-73
2022/06/21 00:52:52;;;;;;;1.37;1.27;;;;;;;13.64;92.63;98115.38;5052853;28;20243;-73
2022/06/21 00:55:30;;;;;;;1.40;1.30;;;;;;;13.49;93.79;98116.59;5052913;28;20212;-73
2022/06/21 00:57:57;;;;;;;2.03;1.47;;;;;;;13.42;94.76;98104.78;5052721;28;20704;-73
2022/06/21 01:00:30;;;;;;;1.70;1.40;;;;;;;13.43;93.80;98098.50;5051748;28;20219;-73
2022/06/21 01:02:58;;;;;;;1.40;1.27;;;;;;;13.44;94.02;98100.22;5052654;28;20242;-73
2022/06/21 01:05:29;;;;;;;1.57;1.47;;;;;;;13.51;92.64;98104.06;5052589;28;20212;-73
2022/06/21 01:07:58;;;;;;;1.60;1.50;;;;;;;13.53;92.55;98096.81;5051052;28;20223;-73
2022/06/21 01:10:26;;;;;;;1.57;1.47;;;;;;;13.44;93.09;98100.22;5052406;28;20220;-73
2022/06/21 01:12:57;;;;;;;1.97;1.30;;;;;;;13.35;93.45;98093.00;5052683;28;20246;-73
2022/06/21 01:15:30;;;;;;;1.53;1.43;;;;;;;13.23;95.32;98084.22;5043951;28;20216;-73
2022/06/21 01:18:00;;;;;;;1.57;1.30;;;;;;;13.13;96.60;98087.69;5052492;28;20665;-73
2022/06/21 01:20:28;;;;;;;1.67;1.30;;;;;;;13.08;96.19;98087.25;5045684;28;20751;-73
2022/06/21 01:23:04;;;;;;;2.30;1.50;;;;;;;13.04;96.98;98091.09;5052803;28;20219;-73
2022/06/21 01:25:39;;;;;;;1.30;1.20;;;;;;;13.01;97.15;98094.84;5054624;28;20216;-73
2022/06/21 01:28:09;;;;;;;2.00;1.60;;;;;;;12.98;97.03;98088.94;5056428;28;20247;-73
2022/06/21 01:30:38;;;;;;;1.73;1.60;;;;;;;12.96;96.98;98085.56;5056253;28;20212;-73
2022/06/21 01:33:07;;;;;;;1.27;1.10;;;;;;;12.94;96.86;98095.41;5045586;28;20238;-73
2022/06/21 01:35:41;;;;;;;1.97;1.33;;;;;;;12.86;96.84;98092.53;5056479;28;20212;-73
2022/06/21 01:38:13;;;;;;;1.43;1.33;;;;;;;12.83;97.19;98087.47;5049292;28;20291;-72
2022/06/21 01:40:45;;;;;;;1.83;1.40;;;;;;;12.88;96.26;98074.69;5056270;28;20226;-73
2022/06/21 01:43:16;;;;;;;2.70;1.63;;;;;;;12.94;94.61;98051.16;5056455;28;20216;-73
2022/06/21 01:45:47;;;;;;;2.33;1.77;;;;;;;12.89;94.50;98055.16;5056313;28;20227;-74
2022/06/21 01:48:22;;;;;;;1.37;1.27;;;;;;;12.82;94.65;98051.28;5056343;28;20578;-73
2022/06/21 01:50:50;;;;;;;2.33;1.60;;;;;;;12.79;95.05;98046.25;5047505;28;20214;-74
2022/06/21 01:53:20;;;;;;;2.73;1.40;;;;;;;12.75;95.72;98047.44;5055847;28;20254;-74
2022/06/21 01:55:53;;;;;;;1.80;1.70;;;;;;;12.69;95.82;98039.97;5056122;28;20215;-73
2022/06/21 01:58:24;;;;;;;2.30;1.50;;;;;;;12.71;95.56;98038.88;5056095;28;20219;-73
2022/06/21 02:00:56;;;;;;;2.23;1.60;;;;;;;12.65;95.53;98033.25;5053997;28;20216;-73
2022/06/21 02:03:27;;;;;;;2.67;1.63;;;;;;;12.66;95.89;98034.94;5055889;28;20208;-74
2022/06/21 02:05:57;;;;;;;1.70;1.60;;;;;;;12.58;95.98;98021.41;5056010;28;20223;-72
2022/06/21 02:08:29;;;;;;;2.70;1.80;;;;;;;12.56;96.67;98028.66;5055993;28;20215;-73
2022/06/21 02:11:00;;;;;;;2.03;1.70;;;;;;;12.38;98.18;98035.38;5055887;28;20212;-73
2022/06/21 02:13:33;;;;;;;1.83;1.57;;;;;;;12.29;99.32;98044.06;5055441;28;20732;-73
2022/06/21 02:16:05;;;;;;;2.80;2.00;;;;;;;12.23;100.00;98036.59;5055860;28;20219;-74
2022/06/21 02:18:38;;;;;;;3.27;1.77;;;;;;;12.22;100.00;98035.72;5055739;28;20216;-73
2022/06/21 02:21:11;;;;;;;2.17;1.50;;;;;;;12.26;100.00;98037.19;5055680;28;20227;-73
2022/06/21 02:23:40;;;;;;;2.13;1.43;;;;;;;12.28;99.58;98031.78;5055520;28;20640;-73
2022/06/21 02:26:07;;;;;;;1.40;1.30;;;;;;;12.30;98.78;98033.31;5053956;28;20231;-74
2022/06/21 02:28:35;;;;;;;2.23;1.60;;;;;;;12.35;97.69;98031.16;5055413;28;20216;-73
2022/06/21 02:31:01;;;;;;;1.70;1.60;;;;;;;12.42;95.50;98023.59;5055445;28;20238;-73
2022/06/21 02:33:33;;;;;;;1.73;1.63;;;;;;;12.50;93.36;98013.22;5054876;28;20237;-74
2022/06/21 02:36:02;;;;;;;2.23;1.67;;;;;;;12.64;91.44;97994.41;5045334;28;20662;-73
2022/06/21 02:38:33;;;;;;;1.77;1.67;;;;;;;12.67;90.58;97999.47;5055176;28;20248;-73
2022/06/21 02:41:06;;;;;;;2.53;1.70;;;;;;;12.54;90.33;98010.19;5055285;28;20212;-73
2022/06/21 02:43:40;;;;;;;2.90;2.00;;;;;;;12.47;90.98;98002.88;5055258;28;20215;-72
2022/06/21 02:46:10;;;;;;;2.13;1.50;;;;;;;12.37;92.47;98007.19;5054951;28;20221;-73
2022/06/21 02:48:45;;;;;;;1.50;1.40;;;;;;;12.33;93.23;98016.34;5055209;28;20219;-73
2022/06/21 02:51:17;;;;;;;4.00;1.57;;;;;;;12.34;92.97;98007.47;5053519;28;20214;-73
2022/06/21 02:53:52;;;;;;;1.60;1.50;;;;;;;12.29;93.94;98009.63;5046272;28;20349;-73
2022/06/21 02:56:25;;;;;;;3.00;1.50;;;;;;;12.27;93.86;98007.06;5055020;28;20222;-73
2022/06/21 02:58:56;;;;;;;2.30;1.60;;;;;;;12.25;94.16;98016.09;5054990;28;20575;-73
2022/06/21 03:01:28;;;;;;;2.47;1.80;;;;;;;12.23;94.99;98020.69;5054872;28;20295;-73
2022/06/21 03:03:56;;;;;;;1.50;1.40;;;;;;;12.28;95.04;98021.19;5054668;28;20218;-73
2022/06/21 03:06:24;;;;;;;2.03;1.63;;;;;;;12.34;94.43;98023.34;5054830;28;20220;-72
2022/06/21 03:08:54;;;;;;;1.67;1.47;;;;;;;12.38;93.96;98020.34;5054850;28;20215;-72
2022/06/21 03:11:22;;;;;;;1.50;1.40;;;;;;;12.38;93.80;98019.47;5054676;28;20314;-72
2022/06/21 03:13:49;;;;;;;2.97;1.90;;;;;;;12.37;94.27;98012.50;5054675;28;20250;-72
2022/06/21 03:16:18;;;;;;;1.80;1.67;;;;;;;12.40;94.48;98005.16;5054669;28;20223;-72
2022/06/21 03:18:50;;;;;;;2.93;1.70;;;;;;;12.39;94.44;97989.34;5052718;28;20223;-72
2022/06/21 03:21:22;;;;;;;1.93;1.70;;;;;;;12.34;95.11;97987.06;5045701;28;20219;-72
2022/06/21 03:23:49;;;;;;;2.23;1.70;;;;;;;12.36;95.39;97984.31;5054723;28;20215;-72
2022/06/21 03:26:16;;;;;;;1.90;1.80;;;;;;;12.36;95.46;97984.31;5054092;28;20225;-72
2022/06/21 03:28:45;;;;;;;2.23;2.03;;;;;;;12.38;95.46;97993.84;5054331;28;20218;-72
2022/06/21 03:31:16;;;;;;;1.80;1.70;;;;;;;12.45;94.66;97996.84;5053978;28;20219;-72
2022/06/21 03:33:47;;;;;;;2.57;1.90;;;;;;;12.51;94.48;98001.66;5054116;28;20235;-72
2022/06/21 03:36:16;;;;;;;1.70;1.60;;;;;;;12.58;93.08;97984.28;5054111;28;20222;-72
2022/06/21 03:38:46;;;;;;;1.80;1.70;;;;;;;12.65;91.88;97978.38;5053918;28;20596;-72
2022/06/21 03:44:04;;;;;;;2.37;1.90;;;;;;;12.81;90.90;97975.34;5045626;28;20766;-72
2022/06/21 03:46:38;;;;;;;2.17;1.83;;;;;;;12.88;90.47;97971.22;5053764;28;20310;-72
2022/06/21 03:49:13;;;;;;;1.70;1.60;;;;;;;12.99;90.27;97984.50;5053787;28;20218;-72
2022/06/21 03:51:43;;;;;;;1.77;1.60;;;;;;;13.09;88.59;97983.63;5053772;28;20317;-72
2022/06/21 03:54:13;;;;;;;1.70;1.60;;;;;;;13.18;87.46;97984.69;5053787;28;20627;-72
2022/06/21 03:56:46;;;;;;;2.17;1.60;;;;;;;13.23;85.87;97993.13;5045002;28;20216;-72
2022/06/21 03:59:23;;;;;;;1.83;1.63;;;;;;;13.26;85.05;97987.56;5053692;28;20215;-72
2022/06/21 04:01:54;;;;;;;2.30;1.60;;;;;;;13.40;84.71;97985.47;5048202;28;20214;-72
2022/06/21 04:04:29;;;;;;;1.60;1.43;;;;;;;13.52;85.16;97983.59;5053725;28;20555;-73
2022/06/21 04:07:02;;;;;;;1.57;1.47;;;;;;;13.69;85.38;97975.06;5053602;28;20210;-72
2022/06/21 04:09:38;;;;;;;1.70;1.53;;;;;;;13.83;83.75;97972.94;5051912;28;20624;-72
2022/06/21 04:12:10;;;;;;;2.83;1.70;;;;;;;13.95;82.58;97974.56;5053530;28;20646;-72
2022/06/21 04:14:43;;;;;;;1.83;1.60;;;;;;;14.08;81.68;97964.56;5053526;28;20242;-72
2022/06/21 04:17:18;;;;;;;2.03;1.57;;;;;;;14.21;81.92;97957.25;5053262;28;20212;-73
2022/06/21 04:19:52;;;;;;;2.17;1.67;;;;;;;14.42;82.29;97949.22;5053222;28;20232;-72
2022/06/21 04:22:26;;;;;;;1.80;1.60;;;;;;;14.59;81.80;97961.88;5045051;28;20567;-72
2022/06/21 04:24:58;;;;;;;2.60;1.70;;;;;;;14.77;80.72;97966.41;5053307;28;20211;-73
2022/06/21 04:27:30;;;;;;;2.20;2.00;;;;;;;14.91;79.46;97974.00;5053385;28;20212;-72
2022/06/21 04:30:03;;;;;;;2.63;1.77;;;;;;;15.02;78.75;97981.88;5053322;28;20212;-72
2022/06/21 04:32:33;;;;;;;2.80;1.83;;;;;;;15.18;78.49;97982.19;5053101;28;20286;-73
2022/06/21 04:35:07;;;;;;;2.23;1.80;;;;;;;15.35;77.28;97983.38;5051352;28;20387;-72
2022/06/21 04:37:39;;;;;;;1.70;1.60;;;;;;;15.47;77.01;97968.94;5053068;28;20233;-72
2022/06/21 04:40:10;;;;;;;1.97;1.60;;;;;;;15.67;76.58;97974.13;5053029;28;20220;-72
2022/06/21 04:42:44;;;;;;;2.23;1.90;;;;;;;15.81;75.11;97972.84;5053087;28;20242;-73
2022/06/21 04:45:18;;;;;;;2.63;1.90;;;;;;;15.98;71.97;97964.97;5053055;28;20222;-72
2022/06/21 04:47:49;;;;;;;2.63;1.87;;;;;;;16.04;72.65;97957.22;5053067;28;20215;-72
2022/06/21 04:50:25;;;;;;;1.80;1.70;;;;;;;16.13;73.15;97961.69;5052930;28;20222;-72
2022/06/21 04:52:57;;;;;;;2.03;1.80;;;;;;;16.20;73.91;97956.63;5057417;28;20207;-72
2022/06/21 04:55:31;;;;;;;3.03;1.40;;;;;;;16.32;73.58;97960.78;5052595;28;20666;-72
2022/06/21 04:57:57;;;;;;;3.17;1.87;;;;;;;16.44;71.30;97968.50;5052624;28;20215;-72
2022/06/21 05:00:24;;;;;;;3.17;1.93;;;;;;;16.53;69.96;97959.63;5056615;28;20228;-72
2022/06/21 05:02:55;;;;;;;2.47;1.60;;;;;;;16.55;70.72;97957.66;5057818;28;20215;-73
2022/06/21 05:05:26;;;;;;;2.30;1.73;;;;;;;16.54;71.24;97953.31;5059160;28;20220;-73
2022/06/21 05:07:58;;;;;;;1.67;1.50;;;;;;;16.50;71.18;97965.25;5059490;28;20208;-73
2022/06/21 05:10:28;;;;;;;1.87;1.50;;;;;;;16.49;71.80;97960.91;5059475;28;20214;-73
2022/06/21 05:12:59;;;;;;;6.23;1.90;;;;;;;16.65;71.01;97968.28;5059330;28;20212;-73
2022/06/21 05:15:29;;;;;;;2.73;1.63;;;;;;;16.97;69.54;97974.88;5059397;28;20302;-73
2022/06/21 05:17:58;;;;;;;2.97;2.00;;;;;;;17.64;66.70;97967.25;5059389;28;20211;-72
2022/06/21 05:20:29;;;;;;;3.27;1.73;;;;;;;18.62;61.97;97965.97;5059053;28;20212;-72
2022/06/21 05:23:01;;;;;;;2.77;1.53;;;;;;;19.46;58.67;97970.31;5059058;28;20218;-72
2022/06/21 05:25:30;;;;;;;1.80;1.67;;;;;;;20.01;54.23;97968.66;5059709;28;20270;-75
2022/06/21 05:28:01;;;;;;;4.00;2.00;;;;;;;20.34;54.09;97967.63;5057499;28;20215;-72
2022/06/21 05:30:45;;;;;;;3.30;1.80;;;;;;;20.62;53.14;97950.13;5059193;28;20216;-72
2022/06/21 05:33:16;;;;;;;3.57;1.97;;;;;;;20.64;52.38;97958.84;5051715;28;20239;-72
2022/06/21 05:35:45;;;;;;;2.20;1.50;;;;;;;20.81;51.60;97955.09;5059204;28;20219;-74
2022/06/21 05:38:14;;;;;;;3.27;1.90;;;;;;;20.89;50.19;97963.16;5059098;28;20235;-73
2022/06/21 05:40:47;;;;;;;2.20;1.43;;;;;;;20.97;50.12;97949.66;5059193;28;20588;-73
2022/06/21 05:43:16;;;;;;;2.80;1.60;;;;;;;21.32;49.57;97961.75;5059134;28;20218;-73
2022/06/21 05:45:49;;;;;;;3.23;1.80;;;;;;;21.97;47.68;97963.00;5059133;28;20212;-73
2022/06/21 05:48:23;;;;;;;2.27;1.63;;;;;;;22.54;45.52;97959.63;5058955;28;20223;-73
2022/06/21 05:50:52;;;;;;;2.67;1.50;;;;;;;22.97;44.70;97956.09;5050949;28;20216;-74
2022/06/21 05:53:28;;;;;;;4.67;2.00;;;;;;;23.45;43.31;97944.69;5057212;28;20232;-73
2022/06/21 05:55:56;;;;;;;2.33;1.60;;;;;;;23.93;42.50;97952.06;5053635;28;20220;-73
2022/06/21 05:58:28;;;;;;;3.07;1.57;;;;;;;24.29;42.49;97954.63;5059087;28;20218;-73
2022/06/21 06:01:01;;;;;;;1.83;1.60;;;;;;;23.84;41.89;97966.66;5059118;28;20216;-73
2022/06/21 06:03:31;;;;;;;3.53;1.87;;;;;;;23.48;42.63;97971.25;5059038;28;20211;-73
2022/06/21 06:06:04;;;;;;;2.17;1.63;;;;;;;22.99;44.25;97980.97;5062625;28;20219;-73
2022/06/21 06:08:34;;;;;;;2.63;1.60;;;;;;;22.35;44.86;97981.66;5058830;28;20254;-73
2022/06/21 06:11:04;;;;;;;1.70;1.50;;;;;;;21.87;46.19;97975.84;5057319;28;20277;-73
2022/06/21 06:13:34;;;;;;;2.00;1.40;;;;;;;21.54;46.40;97974.38;5055693;28;20339;-73
2022/06/21 06:16:05;;;;;;;1.60;1.37;;;;;;;21.21;47.34;97971.03;5055903;28;20212;-73
2022/06/21 06:18:41;;;;;;;2.53;1.63;;;;;;;20.98;48.31;97978.22;5055898;28;20227;-73
2022/06/21 06:21:17;;;;;;;1.87;1.67;;;;;;;21.09;48.73;97977.00;5054336;28;20261;-73
2022/06/21 06:23:49;;;;;;;2.23;1.70;;;;;;;21.57;47.59;97977.56;5055384;28;20211;-74
2022/06/21 06:26:17;;;;;;;3.80;1.70;;;;;;;21.62;47.11;97975.19;5055458;28;20219;-74
2022/06/21 06:28:52;;;;;;;3.13;1.80;;;;;;;21.66;46.10;97978.34;5055594;28;20215;-73
2022/06/21 06:31:21;;;;;;;3.67;1.90;;;;;;;22.11;44.82;97986.44;5055522;28;20212;-73
2022/06/21 06:33:53;;;;;;;2.40;1.70;;;;;;;22.68;44.05;97983.03;5055287;28;20578;-73
2022/06/21 06:36:25;;;;;;;3.90;1.67;;;;;;;23.33;43.47;97981.25;5055425;28;20208;-73
2022/06/21 06:38:52;;;;;;;4.70;1.80;;;;;;;24.24;41.54;97976.84;5055445;28;20243;-73
2022/06/21 06:41:26;;;;;;;1.93;1.63;;;;;;;24.63;39.84;97984.47;5055179;28;20238;-72
2022/06/21 06:43:57;;;;;;;2.50;1.50;;;;;;;25.06;39.52;97975.97;5046354;28;20747;-72
2022/06/21 06:46:29;;;;;;;2.50;1.60;;;;;;;25.43;38.84;97970.13;5053624;28;20294;-72
2022/06/21 06:49:05;;;;;;;2.70;1.63;;;;;;;25.55;37.21;97971.22;5048727;28;20220;-72
2022/06/21 06:51:41;;;;;;;2.73;1.73;;;;;;;25.46;37.92;97977.84;5054886;28;20211;-72
2022/06/21 06:54:16;;;;;;;1.70;1.50;;;;;;;25.52;37.02;97974.34;5054854;28;20235;-73
2022/06/21 06:56:55;;;;;;;2.20;1.60;;;;;;;25.82;37.62;97964.84;5047704;28;20661;-72
2022/06/21 06:59:25;;;;;;;2.93;1.50;;;;;;;26.08;37.10;97962.19;5054701;28;20575;-73
2022/06/21 07:01:58;;;;;;;3.30;1.50;;;;;;;26.37;36.19;97964.50;5054849;28;20266;-73
2022/06/21 07:04:27;;;;;;;2.00;1.50;;;;;;;26.38;36.61;97970.75;5054516;28;20216;-72
2022/06/21 07:07:01;;;;;;;1.50;1.30;;;;;;;26.12;36.96;97968.88;5054607;28;20216;-73
2022/06/21 07:09:31;;;;;;;1.90;1.50;;;;;;;26.00;36.59;97965.13;5046288;28;20216;-73
2022/06/21 07:12:06;;;;;;;2.97;1.80;;;;;;;25.74;37.13;97967.75;5053143;28;20212;-75
2022/06/21 07:14:34;;;;;;;2.73;1.53;;;;;;;25.28;37.55;97971.31;5048699;28;20231;-74
2022/06/21 07:17:08;;;;;;;2.23;1.47;;;;;;;24.75;39.43;97978.28;5054713;28;20211;-74
2022/06/21 07:19:34;;;;;;;1.97;1.40;;;;;;;23.97;40.59;97980.34;5054477;28;20219;-74
2022/06/21 07:22:02;;;;;;;3.40;1.50;;;;;;;23.32;41.80;97971.50;5055964;28;20224;-73
2022/06/21 07:24:29;;;;;;;4.93;1.70;;;;;;;22.88;42.83;97989.56;5054299;28;20220;-74
2022/06/21 07:27:01;;;;;;;2.83;1.37;;;;;;;22.80;43.35;98000.41;5053972;28;20242;-74
2022/06/21 07:29:31;;;;;;;3.67;1.77;;;;;;;22.98;44.08;98005.44;5051678;28;20212;-70
2022/06/21 07:32:02;;;;;;;1.57;1.40;;;;;;;23.30;44.09;98000.53;5051909;28;20208;-71
2022/06/21 07:34:35;;;;;;;2.33;1.67;;;;;;;23.40;42.28;98001.06;5051892;28;20327;-71
2022/06/21 07:37:08;;;;;;;2.67;1.70;;;;;;;23.13;42.32;98004.41;5049543;28;20213;-71
2022/06/21 07:39:40;;;;;;;2.00;1.50;;;;;;;22.87;42.45;98000.53;5044286;28;20235;-70
2022/06/21 07:42:13;;;;;;;1.80;1.60;;;;;;;22.70;43.40;98001.72;5046878;28;20298;-70
2022/06/21 07:44:45;;;;;;;1.60;1.50;;;;;;;22.48;44.20;97998.06;5046194;28;20222;-70
2022/06/21 07:47:17;;;;;;;2.03;1.53;;;;;;;22.31;44.20;97996.50;5042730;28;20209;-73
2022/06/21 07:49:48;;;;;;;2.03;1.47;;;;;;;22.24;44.11;97990.19;5046756;28;20216;-75
2022/06/21 07:52:23;;;;;;;1.60;1.50;;;;;;;22.43;43.87;97973.53;5047056;28;20220;-74
2022/06/21 07:54:55;;;;;;;3.43;1.50;;;;;;;22.56;44.52;97968.34;5045420;28;20243;-75
2022/06/21 07:57:26;;;;;;;1.70;1.60;;;;;;;22.66;43.91;97951.91;5044509;28;20209;-76
2022/06/21 07:59:58;;;;;;;2.33;1.63;;;;;;;22.71;43.79;97955.72;5047186;28;20212;-78
2022/06/21 08:08:16;;;;;;;4.63;1.50;;;;;;;22.63;44.11;97925.34;5051882;28;20211;-77
2022/06/21 08:10:48;;;;;;;2.07;1.40;;;;;;;22.67;44.05;97916.69;5052132;28;20222;-76
2022/06/21 08:13:16;;;;;;;2.17;1.60;;;;;;;22.55;44.48;97917.38;5051931;28;20216;-77
2022/06/21 08:15:44;;;;;;;2.33;1.50;;;;;;;22.59;44.67;97918.66;5052372;28;20232;-77
2022/06/21 08:18:26;;;;;;;1.90;1.70;;;;;;;22.68;44.63;97922.94;5052419;28;20218;-77
2022/06/21 08:20:59;;;;;;;4.37;1.70;;;;;;;22.85;44.76;97914.47;5048785;28;20250;-77
2022/06/21 08:23:35;;;;;;;2.90;1.60;;;;;;;22.91;44.88;97908.31;5052259;28;20216;-76
2022/06/21 08:26:04;;;;;;;3.17;1.63;;;;;;;23.05;44.05;97899.34;5052100;28;20222;-76
2022/06/21 08:28:38;;;;;;;2.33;1.67;;;;;;;23.18;44.46;97896.03;5046392;28;20231;-76
2022/06/21 08:31:09;;;;;;;4.10;1.90;;;;;;;23.35;43.20;97908.25;5049983;28;20307;-76
2022/06/21 08:33:42;;;;;;;2.30;1.70;;;;;;;23.41;43.56;97911.00;5051580;28;20789;-76
2022/06/21 08:36:13;;;;;;;1.80;1.67;;;;;;;23.43;43.11;97927.84;5051370;28;20267;-76
2022/06/21 08:38:47;;;;;;;3.63;1.70;;;;;;;23.68;43.01;97937.25;5051887;28;20244;-76
2022/06/21 08:41:55;;;;;;;2.57;1.60;;;;;;;24.03;42.30;97928.25;5051720;28;20227;-76
2022/06/21 08:48:36;;;;;;;2.00;1.40;;;;;;;24.27;41.88;97913.50;5008627;28;20220;-76
2022/06/21 08:51:34;;;;;;;2.10;1.67;;;;;;;24.21;42.02;97928.59;5000729;28;20592;-76
2022/06/21 08:54:10;;;;;;;1.97;1.50;;;;;;;24.22;41.84;97938.41;5050481;28;20234;-76
2022/06/21 08:56:44;;;;;;;3.80;1.80;;;;;;;24.39;41.31;97934.34;5050647;28;20212;-76
2022/06/21 08:59:25;;;;;;;2.33;1.50;;;;;;;24.51;41.27;97942.75;5051588;28;20222;-76
2022/06/21 09:02:01;;;;;;;2.37;1.70;;;;;;;24.64;41.87;97932.06;5051405;28;20212;-76
2022/06/21 09:04:41;;;;;;;2.07;1.80;;;;;;;24.82;41.30;97906.16;5051473;28;20222;-76
2022/06/21 09:07:46;;;;;;;2.30;1.60;;;;;;;24.75;40.97;97901.78;5051510;28;20218;-76
2022/06/21 09:10:28;;;;;;;1.50;1.40;;;;;;;24.53;41.68;97892.06;5049293;28;20216;-78
2022/06/21 09:13:05;;;;;;;2.23;1.67;;;;;;;24.42;41.95;97900.69;5051262;28;20700;-76
2022/06/21 09:15:47;;;;;;;2.03;1.73;;;;;;;24.45;42.54;97917.34;5051445;28;20243;-76
2022/06/21 09:18:30;;;;;;;2.00;1.43;;;;;;;24.73;43.10;97920.06;5051601;28;20215;-76
2022/06/21 09:21:04;;;;;;;2.27;1.73;;;;;;;24.89;42.58;97915.16;5051702;28;20212;-76
2022/06/21 09:23:46;;;;;;;2.50;1.60;;;;;;;25.04;41.34;97910.44;5049428;28;20219;-76
2022/06/21 09:26:21;;;;;;;2.83;2.00;;;;;;;24.93;41.82;97904.78;5040647;28;20215;-77
2022/06/21 09:28:53;;;;;;;3.30;1.70;;;;;;;24.74;41.81;97911.75;5051359;28;20214;-76
2022/06/21 09:31:29;;;;;;;2.63;1.60;;;;;;;24.56;42.14;97903.28;5051041;28;20217;-76
2022/06/21 09:34:02;;;;;;;2.23;1.50;;;;;;;24.48;42.68;97908.88;5050986;28;20219;-76
2022/06/21 09:36:38;;;;;;;2.27;1.63;;;;;;;24.52;42.28;97899.34;5051270;28;20293;-76
2022/06/21 09:39:15;;;;;;;2.60;1.73;;;;;;;24.44;42.24;97915.69;5051357;28;20244;-77
2022/06/21 09:41:52;;;;;;;2.20;1.53;;;;;;;24.50;42.93;97912.19;5051128;28;20646;-76
2022/06/21 09:44:25;;;;;;;3.20;1.67;;;;;;;24.59;42.30;97908.34;5050912;28;20220;-77
2022/06/21 09:47:03;;;;;;;4.20;1.77;;;;;;;24.66;42.67;97922.72;5053680;28;20227;-77
2022/06/21 09:49:41;;;;;;;1.93;1.70;;;;;;;24.75;42.28;97915.31;5053764;28;20234;-76
2022/06/21 09:52:21;;;;;;;2.87;1.70;;;;;;;24.99;42.11;97910.22;5054963;28;20215;-77
2022/06/21 09:54:55;;;;;;;2.23;1.90;;;;;;;25.09;42.02;97899.00;5054804;28;20289;-76
2022/06/21 09:57:30;;;;;;;2.73;1.67;;;;;;;25.17;42.80;97891.56;5054576;28;20231;-77
2022/06/21 10:00:05;;;;;;;2.63;1.80;;;;;;;25.39;42.28;97898.53;5054558;28;20222;-77
2022/06/21 10:02:40;;;;;;;3.20;1.80;;;;;;;25.46;42.36;97902.09;5054623;28;20215;-77
2022/06/21 10:05:17;;;;;;;3.10;1.80;;;;;;;25.55;42.94;97900.03;5054537;28;20216;-77
2022/06/21 10:08:04;;;;;;;2.17;1.70;;;;;;;25.50;41.99;97903.34;5054221;28;20674;-77
2022/06/21 10:10:45;;;;;;;2.90;2.30;;;;;;;25.34;41.75;97887.47;5054603;28;20216;-83
2022/06/21 10:13:30;;;;;;;2.20;2.00;;;;;;;25.30;42.98;97894.31;5054288;28;20220;-83
2022/06/21 10:16:25;;;;;;;2.47;1.90;;;;;;;25.29;43.13;97879.13;5052402;28;20727;-82
2022/06/21 10:19:13;;;;;;;3.10;2.10;;;;;;;25.28;42.38;97882.88;5050784;28;20212;-83
2022/06/21 10:22:09;;;;;;;2.30;2.10;;;;;;;25.35;43.19;97878.31;5054342;28;20442;-83
2022/06/21 10:24:52;;;;;;;3.50;2.00;;;;;;;25.50;43.63;97886.28;5049481;28;20209;-84
2022/06/21 10:27:43;;;;;;;2.87;2.27;;;;;;;25.54;43.41;97866.69;5044361;28;20573;-84
2022/06/21 10:30:30;;;;;;;3.13;2.00;;;;;;;25.56;42.83;97867.34;5054285;28;20212;-82
2022/06/21 10:33:12;;;;;;;2.73;2.40;;;;;;;25.66;42.51;97859.63;5053791;28;20218;-82
2022/06/21 10:35:48;;;;;;;2.77;2.03;;;;;;;25.77;43.19;97864.44;5053793;28;20232;-82
2022/06/21 10:38:32;;;;;;;2.97;2.33;;;;;;;25.88;43.59;97846.72;5053631;28;20244;-81
2022/06/21 10:41:11;;;;;;;2.73;2.17;;;;;;;25.89;42.93;97849.25;5043349;28;20275;-81
2022/06/21 10:44:16;;;;;;;2.50;1.90;;;;;;;25.79;43.55;97837.16;5052327;28;20585;-81
2022/06/21 10:46:49;;;;;;;4.00;2.30;;;;;;;25.80;44.09;97839.69;5007159;28;20211;-82
2022/06/21 10:49:40;;;;;;;2.43;2.10;;;;;;;25.75;44.07;97825.06;5048375;28;20223;-82
2022/06/21 10:52:24;;;;;;;3.73;2.00;;;;;;;25.70;44.36;97823.00;5048843;28;20266;-81
2022/06/21 10:55:13;;;;;;;2.97;2.43;;;;;;;25.61;45.24;97818.81;5044127;28;20242;-82
2022/06/21 10:57:53;;;;;;;2.50;2.30;;;;;;;25.69;45.53;97815.94;5052640;28;20216;-82
2022/06/21 11:03:45;;;;;;;3.33;2.57;;;;;;;25.81;44.84;97792.59;5052797;28;20735;-81
2022/06/21 11:06:27;;;;;;;2.87;2.30;;;;;;;25.84;44.42;97794.88;5050527;28;20647;-82
2022/06/21 11:09:07;;;;;;;3.13;2.83;;;;;;;25.82;44.98;97794.25;5051540;28;20222;-82
2022/06/21 11:11:43;;;;;;;2.77;2.40;;;;;;;25.80;45.47;97793.66;5052138;28;20212;-81
2022/06/21 11:14:19;;;;;;;2.50;2.30;;;;;;;25.88;44.98;97793.41;5051890;28;20582;-82
2022/06/21 11:16:57;;;;;;;3.23;2.50;;;;;;;25.89;45.72;97803.19;5052225;28;20236;-82
2022/06/21 11:19:36;;;;;;;3.03;2.37;;;;;;;25.94;45.36;97803.44;5053263;28;20215;-80
2022/06/21 11:22:27;;;;;;;3.13;2.17;;;;;;;26.00;44.87;97808.03;5052003;28;20226;-82
2022/06/21 11:25:11;;;;;;;3.80;2.23;;;;;;;26.21;44.77;97798.81;5062771;28;20261;-81
2022/06/21 11:27:49;;;;;;;3.53;2.70;;;;;;;26.38;43.53;97795.44;5051950;28;20254;-82
2022/06/21 11:30:21;;;;;;;3.00;2.70;;;;;;;26.47;44.07;97805.00;5043863;28;20223;-82
2022/06/21 11:32:58;;;;;;;3.03;2.40;;;;;;;26.42;43.29;97793.97;5052714;28;20212;-82
2022/06/21 11:35:36;;;;;;;2.83;2.63;;;;;;;26.28;44.23;97786.09;5047741;28;20239;-81
2022/06/21 11:38:19;;;;;;;3.07;2.37;;;;;;;26.29;44.13;97780.47;5042977;28;20262;-82
2022/06/21 11:40:56;;;;;;;5.00;2.50;;;;;;;26.38;44.24;97779.16;5053286;28;20220;-82
2022/06/21 11:43:49;;;;;;;2.87;2.57;;;;;;;26.45;43.76;97779.97;5048961;28;20222;-81
2022/06/21 11:46:23;;;;;;;3.53;2.70;;;;;;;26.57;44.28;97769.34;5045713;28;20212;-82
2022/06/21 11:49:29;;;;;;;3.00;2.70;;;;;;;26.90;43.99;97770.84;5052579;28;20219;-82
2022/06/21 11:52:39;;;;;;;3.20;2.77;;;;;;;27.19;42.79;97756.69;5043645;28;20222;-84
2022/06/21 11:55:19;;;;;;;3.35;2.75;;;;;;;27.34;43.41;97765.38;5047775;28;20242;-83
2022/06/21 11:57:50;;;;;;;4.22;2.72;;;;;;;27.55;43.45;97762.28;5050691;28;20226;-84
2022/06/21 12:00:22;;;;;;;3.00;2.50;;;;;;;27.72;42.88;97757.97;5051898;28;20216;-84
2022/06/21 12:02:54;;;;;;;3.22;2.65;;;;;;;27.84;42.76;97740.75;5050303;28;20216;-83
2022/06/21 12:05:29;;;;;;;3.03;2.72;;;;;;;28.07;42.39;97721.09;5051929;28;20572;-81
2022/06/21 12:08:05;;;;;;;3.97;2.80;;;;;;;28.23;42.41;97739.50;5044941;28;20221;-82
2022/06/21 12:10:44;;;;;;;2.92;2.72;;;;;;;28.05;42.34;97742.19;5051272;28;20227;-83
2022/06/21 12:13:35;;;;;;;3.13;2.80;;;;;;;28.09;42.53;97743.41;5051692;28;20216;-80
2022/06/21 12:16:22;;;;;;;2.60;2.40;;;;;;;28.04;42.19;97754.97;5046339;28;20479;-82
2022/06/21 12:18:52;;;;;;;2.90;2.70;;;;;;;27.82;42.30;97753.72;5048775;28;20212;-81
2022/06/21 12:21:22;;;;;;;4.47;2.83;;;;;;;27.72;42.54;97752.53;5052516;28;20214;-82